Time;durP1;ratioP1;P1;durP2;ratioP2;P2;SDS_P1;SDS_P2;PMS_P1;PMS_P2;Temp;Humidity;BMP_temperature;BMP_pressure;BME280_temperature;BME280_humidity;BME280_pressure;Samples;Min_cycle;Max_cycle;Signal;HPM_P1;HPM_P2
2022/06/23 00:01:26;;;;;;;3.70;1.30;;;21.30;77.40;;;;;;7343631;19;107941;-87
2022/06/23 00:03:55;;;;;;;3.78;1.20;;;21.30;77.60;;;;;;7347791;19;112125;-86
2022/06/23 00:06:41;;;;;;;4.50;1.40;;;21.20;77.60;;;;;;7344218;19;108047;-85
2022/06/23 00:09:46;;;;;;;5.28;1.13;;;21.20;77.60;;;;;;7344535;19;109213;-86
2022/06/23 00:12:19;;;;;;;2.28;1.20;;;21.10;77.90;;;;;;7341394;19;107422;-86
2022/06/23 00:15:07;;;;;;;2.90;1.05;;;21.10;78.10;;;;;;7343712;19;109569;-87
2022/06/23 00:18:04;;;;;;;3.33;1.13;;;21.00;78.10;;;;;;7344070;19;109987;-87
2022/06/23 00:20:37;;;;;;;3.35;1.40;;;21.00;78.10;;;;;;7341332;19;107364;-86
2022/06/23 00:23:18;;;;;;;2.83;1.30;;;20.90;78.30;;;;;;7345609;19;107713;-86
2022/06/23 00:25:53;;;;;;;1.85;1.27;;;20.90;78.40;;;;;;7342416;19;109362;-87
2022/06/23 00:28:31;;;;;;;2.33;1.30;;;20.90;78.30;;;;;;7348604;19;108201;-88
2022/06/23 00:31:07;;;;;;;1.98;1.20;;;20.90;78.30;;;;;;7342226;19;108897;-86
2022/06/23 00:33:42;;;;;;;2.50;1.40;;;20.90;78.50;;;;;;7343326;19;108244;-87
2022/06/23 00:36:23;;;;;;;6.28;1.40;;;20.80;78.60;;;;;;7342129;19;108222;-87
2022/06/23 00:38:51;;;;;;;9.88;1.48;;;20.80;78.70;;;;;;7344239;19;113027;-86
2022/06/23 00:41:23;;;;;;;4.10;1.50;;;20.70;78.70;;;;;;7344260;19;107644;-86
2022/06/23 00:43:52;;;;;;;2.28;1.27;;;20.70;78.90;;;;;;7339581;19;108843;-86
2022/06/23 00:46:28;;;;;;;3.42;1.70;;;20.60;78.90;;;;;;7341741;19;108887;-86
2022/06/23 00:49:01;;;;;;;4.33;1.73;;;20.60;79.10;;;;;;7338365;19;108858;-86
2022/06/23 00:51:49;;;;;;;5.50;1.60;;;20.70;79.00;;;;;;7345798;19;110716;-86
2022/06/23 00:54:29;;;;;;;3.30;1.42;;;20.70;79.60;;;;;;7343248;19;108328;-87
2022/06/23 00:56:59;;;;;;;4.00;1.42;;;20.70;79.00;;;;;;7339153;19;109906;-87
2022/06/23 00:59:38;;;;;;;9.02;1.38;;;20.70;79.00;;;;;;7341152;19;108894;-86
2022/06/23 01:02:11;;;;;;;4.68;1.30;;;20.70;78.90;;;;;;7339290;19;108151;-85
2022/06/23 01:04:59;;;;;;;4.05;1.52;;;20.70;79.10;;;;;;7343112;19;110509;-86
2022/06/23 01:07:32;;;;;;;2.63;1.40;;;20.60;79.20;;;;;;7342585;19;108191;-86
2022/06/23 01:10:27;;;;;;;4.88;1.65;;;20.60;79.30;;;;;;7339341;19;108192;-87
2022/06/23 01:13:31;;;;;;;5.35;1.40;;;20.60;79.20;;;;;;7347141;19;109051;-87
2022/06/23 01:16:07;;;;;;;3.22;1.80;;;20.60;79.20;;;;;;7341192;19;108100;-86
2022/06/23 01:18:49;;;;;;;4.05;1.40;;;20.60;80.40;;;;;;7341922;19;111425;-86
2022/06/23 01:21:43;;;;;;;3.28;1.65;;;20.60;79.80;;;;;;7338941;19;109061;-86
2022/06/23 01:24:42;;;;;;;5.60;1.48;;;20.60;79.60;;;;;;7342295;19;107945;-86
2022/06/23 01:27:39;;;;;;;3.95;1.55;;;20.60;79.60;;;;;;7342364;19;111248;-87
2022/06/23 01:30:09;;;;;;;7.80;1.67;;;20.60;79.90;;;;;;7341917;19;109209;-87
2022/06/23 01:32:43;;;;;;;2.80;1.38;;;20.50;79.90;;;;;;7342343;19;108580;-87
2022/06/23 01:35:34;;;;;;;3.15;1.60;;;20.50;80.20;;;;;;7341238;19;111021;-87
2022/06/23 01:38:18;;;;;;;3.35;1.50;;;20.50;80.40;;;;;;7348060;19;108942;-87
2022/06/23 01:40:52;;;;;;;3.47;1.58;;;20.60;80.20;;;;;;7341494;19;107844;-86
2022/06/23 01:43:26;;;;;;;4.95;1.60;;;20.70;80.20;;;;;;7340006;19;111321;-88
2022/06/23 01:46:02;;;;;;;6.47;1.70;;;20.80;80.20;;;;;;7341381;19;108460;-86
2022/06/23 01:48:52;;;;;;;3.03;1.70;;;20.80;80.10;;;;;;7339868;19;108921;-87
2022/06/23 01:51:40;;;;;;;4.35;1.40;;;20.80;80.30;;;;;;7340503;19;108961;-87
2022/06/23 01:54:11;;;;;;;;;;;20.80;80.30;;;;;;7340679;19;108853;-87
2022/06/23 01:56:59;;;;;;;2.83;1.65;;;20.80;80.70;;;;;;7344597;19;107886;-88
2022/06/23 01:59:41;;;;;;;4.00;1.60;;;20.70;80.40;;;;;;7340031;19;112512;-87
2022/06/23 02:02:11;;;;;;;5.93;1.60;;;20.70;80.50;;;;;;7344408;19;110766;-88
2022/06/23 02:05:23;;;;;;;4.43;1.50;;;20.70;80.20;;;;;;7339213;19;108801;-87
2022/06/23 02:08:16;;;;;;;3.83;1.45;;;20.90;80.20;;;;;;7335680;19;108200;-87
2022/06/23 02:10:47;;;;;;;3.50;1.75;;;20.90;79.80;;;;;;7340333;19;107843;-87
2022/06/23 02:13:26;;;;;;;5.90;1.55;;;20.90;80.20;;;;;;7338475;19;108663;-88
2022/06/23 02:16:14;;;;;;;5.75;1.70;;;20.70;80.80;;;;;;7340485;19;108245;-87
2022/06/23 02:19:08;;;;;;;11.88;1.60;;;20.60;81.20;;;;;;7338730;19;109260;-86
2022/06/23 02:22:03;;;;;;;4.70;1.60;;;20.50;81.80;;;;;;7340218;19;109052;-87
2022/06/23 02:25:06;;;;;;;3.47;1.50;;;20.50;82.30;;;;;;7338570;19;107572;-86
2022/06/23 02:27:42;;;;;;;4.63;1.50;;;20.40;82.50;;;;;;7342347;19;109531;-86
2022/06/23 02:30:19;;;;;;;5.17;1.53;;;20.40;82.10;;;;;;7337650;19;107949;-88
2022/06/23 02:32:52;;;;;;;2.88;1.77;;;20.40;81.80;;;;;;7339494;19;109956;-87
2022/06/23 02:35:38;;;;;;;2.80;1.50;;;20.40;81.90;;;;;;7339901;19;108120;-86
2022/06/23 02:38:12;;;;;;;4.50;1.42;;;20.40;82.20;;;;;;7337086;19;107777;-86
2022/06/23 02:41:02;;;;;;;3.95;1.27;;;20.40;82.20;;;;;;7339273;19;108196;-87
2022/06/23 02:43:39;;;;;;;5.38;1.50;;;20.50;82.10;;;;;;7339358;19;109336;-87
2022/06/23 02:46:43;;;;;;;6.55;1.55;;;20.40;82.30;;;;;;7338823;19;108280;-87
2022/06/23 02:49:32;;;;;;;3.60;1.30;;;20.40;82.50;;;;;;7338989;19;108481;-87
2022/06/23 02:52:11;;;;;;;4.25;1.40;;;20.30;82.70;;;;;;7342103;19;109995;-86
2022/06/23 02:55:17;;;;;;;5.35;1.67;;;20.20;82.90;;;;;;7337665;19;108627;-87
2022/06/23 02:57:59;;;;;;;3.15;1.70;;;20.10;83.30;;;;;;7335570;19;109271;-86
2022/06/23 03:00:55;;;;;;;5.15;1.63;;;20.00;83.80;;;;;;7336402;19;108263;-86
2022/06/23 03:03:31;;;;;;;2.72;1.40;;;19.90;84.20;;;;;;7337918;19;108194;-88
2022/06/23 03:06:22;;;;;;;9.48;1.80;;;19.90;84.40;;;;;;7337125;19;107663;-88
2022/06/23 03:08:55;;;;;;;2.35;1.60;;;19.90;84.60;;;;;;7337016;19;107854;-87
2022/06/23 03:11:54;;;;;;;5.25;1.92;;;19.90;84.50;;;;;;7338507;19;109882;-88
2022/06/23 03:14:49;;;;;;;18.08;2.10;;;19.90;84.60;;;;;;7344483;19;109337;-87
2022/06/23 03:17:25;;;;;;;4.10;1.80;;;19.80;86.10;;;;;;7347905;19;107427;-88
2022/06/23 03:20:11;;;;;;;4.90;2.30;;;19.70;85.30;;;;;;7345911;19;109094;-87
2022/06/23 03:22:47;;;;;;;7.35;2.15;;;19.70;85.60;;;;;;7344428;19;107802;-88
2022/06/23 03:25:45;;;;;;;3.85;2.08;;;19.60;86.20;;;;;;7343032;19;108421;-87
2022/06/23 03:28:16;;;;;;;5.32;1.77;;;19.60;86.60;;;;;;7345787;19;108414;-87
2022/06/23 03:31:14;;;;;;;3.30;1.90;;;19.60;86.70;;;;;;7343484;19;108366;-87
2022/06/23 03:33:56;;;;;;;5.90;2.10;;;19.60;87.00;;;;;;7343451;19;108267;-88
2022/06/23 03:36:39;;;;;;;5.32;1.90;;;19.60;86.80;;;;;;7345092;19;109601;-87
2022/06/23 03:42:23;;;;;;;12.50;1.90;;;19.80;86.40;;;;;;7346958;19;108787;-88
2022/06/23 03:44:56;;;;;;;3.05;2.13;;;19.80;86.30;;;;;;7346212;19;107988;-87
2022/06/23 03:47:55;;;;;;;13.15;2.30;;;19.80;86.20;;;;;;7345221;19;108214;-87
2022/06/23 03:50:27;;;;;;;10.02;2.17;;;20.00;86.20;;;;;;7342561;19;108668;-87
2022/06/23 03:53:00;;;;;;;18.70;2.33;;;20.10;85.90;;;;;;7344533;19;108337;-87
2022/06/23 03:55:48;;;;;;;6.38;1.75;;;20.10;86.30;;;;;;7346563;19;108347;-87
2022/06/23 03:58:21;;;;;;;3.05;1.85;;;20.00;87.10;;;;;;7343654;19;111232;-88
2022/06/23 04:01:11;;;;;;;3.85;2.10;;;19.80;87.00;;;;;;7344858;19;107778;-87
2022/06/23 04:04:01;;;;;;;6.43;1.90;;;19.80;87.10;;;;;;7345946;19;108612;-88
2022/06/23 04:06:35;;;;;;;4.25;2.00;;;19.80;87.10;;;;;;7340993;19;107613;-87
2022/06/23 04:09:15;;;;;;;2.95;2.00;;;19.80;87.20;;;;;;7344199;19;108655;-87
2022/06/23 04:11:55;;;;;;;5.63;1.75;;;19.80;87.40;;;;;;7342817;19;108851;-88
2022/06/23 04:14:34;;;;;;;6.05;1.80;;;19.80;87.60;;;;;;7344320;19;108298;-88
2022/06/23 04:17:33;;;;;;;11.15;2.38;;;19.70;88.00;;;;;;7344379;19;108280;-87
2022/06/23 04:20:14;;;;;;;4.53;2.20;;;19.60;88.70;;;;;;7339877;19;108674;-86
2022/06/23 04:23:04;;;;;;;6.32;2.58;;;19.60;89.40;;;;;;7339554;19;107902;-86
2022/06/23 04:25:39;;;;;;;3.63;2.13;;;19.50;89.80;;;;;;7337996;19;108011;-87
2022/06/23 04:28:17;;;;;;;11.85;2.03;;;19.40;90.10;;;;;;7345510;19;109223;-87
2022/06/23 04:30:46;;;;;;;12.27;2.67;;;19.40;90.10;;;;;;7340382;19;108075;-88
2022/06/23 04:33:23;;;;;;;12.35;2.40;;;19.50;90.20;;;;;;7339420;19;108687;-87
2022/06/23 04:35:56;;;;;;;10.10;2.22;;;19.70;90.30;;;;;;7338820;19;108299;-88
2022/06/23 04:38:52;;;;;;;7.70;2.50;;;19.70;90.40;;;;;;7338297;19;108261;-88
2022/06/23 04:41:30;;;;;;;7.00;2.58;;;19.80;90.40;;;;;;7337600;19;109024;-88
2022/06/23 04:44:03;;;;;;;7.90;2.35;;;19.90;90.50;;;;;;7338757;19;107521;-87
2022/06/23 04:46:43;;;;;;;13.48;2.47;;;19.90;90.30;;;;;;7337948;19;109430;-86
2022/06/23 04:49:18;;;;;;;6.82;2.10;;;19.90;90.50;;;;;;7338638;19;108033;-88
2022/06/23 04:51:51;;;;;;;6.60;2.47;;;20.00;90.40;;;;;;7343466;19;109327;-88
2022/06/23 04:54:29;;;;;;;9.15;2.35;;;20.00;90.50;;;;;;7336393;19;108147;-87
2022/06/23 04:57:35;;;;;;;6.03;2.53;;;20.10;90.70;;;;;;7339575;19;108497;-88
2022/06/23 05:00:04;;;;;;;5.78;2.38;;;20.10;91.10;;;;;;7340452;19;107453;-87
2022/06/23 05:02:32;;;;;;;10.45;2.65;;;20.10;91.00;;;;;;7343778;19;109130;-88
2022/06/23 05:05:15;;;;;;;6.75;2.40;;;20.20;91.20;;;;;;7341272;19;110859;-87
2022/06/23 05:07:58;;;;;;;12.93;3.47;;;20.30;91.10;;;;;;7342471;19;108102;-88
2022/06/23 05:10:32;;;;;;;11.23;2.53;;;20.30;91.00;;;;;;7339194;19;109309;-88
2022/06/23 05:13:22;;;;;;;8.82;3.15;;;20.40;91.00;;;;;;7342742;19;108756;-87
2022/06/23 05:16:10;;;;;;;11.10;2.53;;;20.40;91.10;;;;;;7347564;19;108538;-87
2022/06/23 05:18:50;;;;;;;4.18;2.90;;;20.50;91.10;;;;;;7340245;19;111565;-88
2022/06/23 05:21:28;;;;;;;9.88;2.85;;;20.50;91.30;;;;;;7340836;19;107869;-87
2022/06/23 05:24:19;;;;;;;7.05;3.08;;;20.60;91.50;;;;;;7340908;19;111634;-87
2022/06/23 05:27:01;;;;;;;7.38;2.90;;;20.70;91.30;;;;;;7341621;19;107883;-88
2022/06/23 05:29:44;;;;;;;8.45;3.22;;;20.80;91.60;;;;;;7340380;19;108785;-88
2022/06/23 05:32:20;;;;;;;14.98;3.90;;;20.90;91.30;;;;;;7342396;19;109028;-88
2022/06/23 05:35:13;;;;;;;19.80;3.55;;;21.00;91.20;;;;;;7336705;19;110105;-88
2022/06/23 05:38:01;;;;;;;11.07;3.50;;;21.10;91.30;;;;;;7344700;19;108653;-88
2022/06/23 05:40:36;;;;;;;23.40;4.03;;;21.20;91.40;;;;;;7339502;19;108273;-88
2022/06/23 05:43:04;;;;;;;10.85;3.60;;;21.30;91.50;;;;;;7340786;19;107318;-88
2022/06/23 05:45:42;;;;;;;7.22;3.85;;;21.40;91.40;;;;;;7342657;19;109188;-93
2022/06/23 05:48:32;;;;;;;18.13;3.38;;;21.50;91.40;;;;;;7342282;19;107262;-90
2022/06/23 05:51:11;;;;;;;19.60;3.67;;;21.60;91.70;;;;;;7339567;19;107645;-87
2022/06/23 05:53:41;;;;;;;7.18;3.63;;;21.80;91.90;;;;;;7339652;19;109336;-87
2022/06/23 05:56:20;;;;;;;7.25;3.30;;;21.90;91.70;;;;;;7339805;19;108416;-86
2022/06/23 05:58:54;;;;;;;7.57;3.20;;;21.90;92.20;;;;;;7339311;19;108533;-88
2022/06/23 06:01:28;;;;;;;8.25;3.25;;;22.00;92.10;;;;;;7347516;19;108699;-89
2022/06/23 06:04:03;;;;;;;10.93;4.18;;;22.10;91.90;;;;;;7342166;19;108677;-88
2022/06/23 06:06:32;;;;;;;12.23;3.42;;;22.30;92.30;;;;;;7339022;19;108046;-88
2022/06/23 06:11:51;;;;;;;7.35;3.67;;;22.40;92.20;;;;;;7341799;19;108581;-88
2022/06/23 06:14:23;;;;;;;9.18;3.75;;;22.60;92.70;;;;;;7340121;19;108123;-88
2022/06/23 06:16:52;;;;;;;8.25;3.08;;;22.70;93.00;;;;;;7342976;19;108544;-88
2022/06/23 06:19:23;;;;;;;12.07;3.50;;;22.70;92.90;;;;;;7338640;19;108275;-87
2022/06/23 06:21:54;;;;;;;15.70;3.30;;;22.90;93.20;;;;;;7341901;19;111911;-91
2022/06/23 06:24:35;;;;;;;8.70;3.28;;;23.00;93.50;;;;;;7345124;19;108311;-89
2022/06/23 06:27:07;;;;;;;11.40;4.05;;;23.10;93.70;;;;;;7342409;19;111420;-89
2022/06/23 06:29:37;;;;;;;8.90;3.20;;;23.20;93.90;;;;;;7342303;19;108171;-88
2022/06/23 06:32:37;;;;;;;11.35;3.58;;;23.30;93.80;;;;;;7337126;19;108352;-89
2022/06/23 06:35:38;;;;;;;8.57;3.53;;;23.40;94.40;;;;;;7336278;19;109327;-87
2022/06/23 06:38:06;;;;;;;11.15;3.70;;;23.60;94.80;;;;;;7339727;19;108778;-88
2022/06/23 06:40:37;;;;;;;8.73;3.33;;;23.70;94.50;;;;;;7339248;19;108255;-89
2022/06/23 06:43:12;;;;;;;9.18;3.38;;;23.80;94.80;;;;;;7337238;19;112021;-88
2022/06/23 06:45:40;;;;;;;9.80;3.50;;;23.90;95.10;;;;;;7339323;19;108434;-87
2022/06/23 06:48:32;;;;;;;6.85;3.55;;;24.00;95.20;;;;;;7347970;19;108596;-90
2022/06/23 06:51:06;;;;;;;10.15;3.50;;;24.10;95.70;;;;;;7348236;19;107432;-91
2022/06/23 06:53:40;;;;;;;8.07;3.72;;;24.30;95.70;;;;;;7349466;19;107632;-90
2022/06/23 06:56:19;;;;;;;9.85;4.15;;;24.40;96.00;;;;;;7349555;19;108956;-91
2022/06/23 06:58:51;;;;;;;6.57;3.65;;;24.50;96.40;;;;;;7347284;19;107832;-90
2022/06/23 07:01:23;;;;;;;7.63;3.58;;;24.60;96.70;;;;;;7351110;19;107003;-91
2022/06/23 07:03:52;;;;;;;12.02;4.18;;;24.70;97.10;;;;;;7349273;19;109343;-89
2022/06/23 07:06:56;;;;;;;16.38;4.03;;;24.90;96.90;;;;;;7350907;19;108021;-91
2022/06/23 07:09:41;;;;;;;11.43;3.80;;;25.10;97.40;;;;;;7346929;19;108314;-89
2022/06/23 07:12:25;;;;;;;7.93;3.20;;;25.20;97.10;;;;;;7354565;19;108949;-91
2022/06/23 07:15:10;;;;;;;9.80;3.85;;;25.30;96.80;;;;;;7348859;19;109787;-91
2022/06/23 07:17:50;;;;;;;11.40;3.75;;;25.40;97.20;;;;;;7346305;19;108634;-89
2022/06/23 07:20:26;;;;;;;9.43;3.53;;;25.50;97.30;;;;;;7351107;19;108436;-89
2022/06/23 07:23:15;;;;;;;9.07;3.85;;;25.60;97.20;;;;;;7350385;19;109454;-91
2022/06/23 07:25:51;;;;;;;8.20;3.92;;;25.80;97.30;;;;;;7348692;19;109416;-87
2022/06/23 07:28:24;;;;;;;9.40;3.53;;;25.90;97.50;;;;;;7348174;19;108017;-87
2022/06/23 07:30:58;;;;;;;6.55;3.45;;;26.10;97.60;;;;;;7348032;19;108157;-85
2022/06/23 07:33:44;;;;;;;9.55;3.67;;;26.20;97.20;;;;;;7343410;19;108383;-80
2022/06/23 07:36:24;;;;;;;10.13;3.87;;;26.30;97.90;;;;;;7348833;19;108106;-81
2022/06/23 07:39:12;;;;;;;8.10;3.95;;;26.30;97.60;;;;;;7344644;19;107515;-82
2022/06/23 07:41:50;;;;;;;9.30;3.60;;;26.40;97.50;;;;;;7346486;19;107694;-82
2022/06/23 07:44:34;;;;;;;16.45;3.90;;;26.50;97.50;;;;;;7345037;19;111742;-82
2022/06/23 07:47:02;;;;;;;9.88;4.35;;;26.60;97.50;;;;;;7346502;19;112100;-82
2022/06/23 07:49:32;;;;;;;8.55;3.47;;;26.70;97.70;;;;;;7345830;19;108095;-82
2022/06/23 07:52:00;;;;;;;10.32;4.07;;;26.80;97.80;;;;;;7346771;19;109291;-82
2022/06/23 07:54:36;;;;;;;8.90;4.43;;;27.00;97.80;;;;;;7347393;19;108993;-82
2022/06/23 07:57:03;;;;;;;13.10;3.95;;;27.10;97.90;;;;;;7351207;19;110828;-82
2022/06/23 07:59:58;;;;;;;10.82;3.72;;;27.10;98.10;;;;;;7340577;19;108782;-82
2022/06/23 08:02:36;;;;;;;10.35;3.50;;;27.20;98.20;;;;;;7347140;19;107939;-82
2022/06/23 08:05:05;;;;;;;9.82;3.63;;;27.30;98.30;;;;;;7345683;19;108780;-82
2022/06/23 08:07:34;;;;;;;10.75;3.75;;;27.40;98.10;;;;;;7346337;19;108651;-80
2022/06/23 08:10:17;;;;;;;15.98;4.22;;;27.50;98.40;;;;;;7345711;19;107945;-82
2022/06/23 08:13:00;;;;;;;11.18;4.00;;;27.60;98.20;;;;;;7345976;19;108193;-80
2022/06/23 08:19:09;;;;;;;12.25;4.18;;;27.80;97.90;;;;;;7345300;19;107431;-81
2022/06/23 08:22:04;;;;;;;8.30;4.20;;;28.00;97.50;;;;;;7350916;19;108555;-82
2022/06/23 08:24:32;;;;;;;12.77;4.60;;;28.10;97.40;;;;;;7344224;19;107344;-82
2022/06/23 08:27:04;;;;;;;11.32;4.47;;;28.30;97.10;;;;;;7345619;19;111514;-80
2022/06/23 08:30:00;;;;;;;10.48;4.53;;;28.30;96.90;;;;;;7343587;19;108893;-80
2022/06/23 08:32:29;;;;;;;12.70;4.30;;;28.40;97.10;;;;;;7345272;19;108298;-80
2022/06/23 08:35:07;;;;;;;10.00;4.47;;;28.40;96.90;;;;;;7341970;19;107635;-80
2022/06/23 08:37:43;;;;;;;14.93;4.60;;;28.40;96.70;;;;;;7340056;19;111373;-81
2022/06/23 08:40:33;;;;;;;12.63;4.43;;;28.30;96.70;;;;;;7341423;19;107896;-80
2022/06/23 08:43:16;;;;;;;27.83;5.30;;;28.30;96.90;;;;;;7344763;19;108316;-80
2022/06/23 08:45:50;;;;;;;9.73;4.57;;;28.30;97.10;;;;;;7348875;19;108929;-80
2022/06/23 08:48:29;;;;;;;10.70;4.22;;;28.40;97.10;;;;;;7341839;19;107697;-80
2022/06/23 08:51:03;;;;;;;7.10;3.92;;;28.40;96.80;;;;;;7344364;19;108998;-80
2022/06/23 08:53:51;;;;;;;8.80;3.85;;;28.40;96.70;;;;;;7345821;19;107988;-79
2022/06/23 08:56:24;;;;;;;6.80;3.78;;;28.30;96.50;;;;;;7344739;19;108268;-80
2022/06/23 08:59:19;;;;;;;7.93;3.88;;;28.30;96.70;;;;;;7343079;19;108926;-81
2022/06/23 09:02:14;;;;;;;8.52;4.22;;;28.30;96.60;;;;;;7343312;19;107809;-80
2022/06/23 09:04:51;;;;;;;7.88;4.32;;;28.20;96.60;;;;;;7343603;19;108584;-80
2022/06/23 09:07:21;;;;;;;11.10;3.97;;;28.30;96.70;;;;;;7343272;19;108956;-80
2022/06/23 09:10:05;;;;;;;13.85;4.55;;;28.30;96.70;;;;;;7348119;19;108232;-81
2022/06/23 09:12:47;;;;;;;9.45;4.32;;;28.40;96.90;;;;;;7342158;19;109915;-80
2022/06/23 09:15:45;;;;;;;8.38;4.70;;;28.40;96.80;;;;;;7342022;19;112050;-80
2022/06/23 09:18:27;;;;;;;10.15;4.43;;;28.50;96.90;;;;;;7340509;19;107699;-80
2022/06/23 09:21:28;;;;;;;10.70;4.30;;;28.60;96.90;;;;;;7342377;19;108797;-80
2022/06/23 09:24:22;;;;;;;11.68;4.00;;;28.60;96.90;;;;;;7343929;19;108219;-81
2022/06/23 09:27:13;;;;;;;13.13;4.32;;;28.60;97.30;;;;;;7343355;19;108564;-82
2022/06/23 09:29:50;;;;;;;12.13;4.20;;;28.70;96.80;;;;;;7342783;19;110021;-80
2022/06/23 09:32:32;;;;;;;7.70;4.22;;;28.70;96.80;;;;;;7341753;19;110618;-80
2022/06/23 09:35:17;;;;;;;10.07;3.95;;;28.70;96.60;;;;;;7345000;19;108441;-80
2022/06/23 09:37:57;;;;;;;9.38;3.92;;;28.60;96.40;;;;;;7343052;19;110937;-80
2022/06/23 09:40:45;;;;;;;6.75;3.10;;;28.60;96.30;;;;;;7342159;19;108004;-79
2022/06/23 09:43:51;;;;;;;6.35;3.08;;;28.70;96.30;;;;;;7343490;19;109276;-80
2022/06/23 09:46:39;;;;;;;9.13;3.30;;;28.70;95.90;;;;;;7340704;19;108026;-80
2022/06/23 09:49:24;;;;;;;12.60;3.42;;;28.80;95.90;;;;;;7344267;19;108312;-80
2022/06/23 09:52:25;;;;;;;8.13;2.88;;;29.00;96.00;;;;;;7340742;19;109264;-80
2022/06/23 09:55:26;;;;;;;4.65;3.03;;;29.10;95.70;;;;;;7338980;19;107428;-80
2022/06/23 09:57:59;;;;;;;6.68;3.30;;;29.20;95.30;;;;;;7342234;19;108210;-80
2022/06/23 10:00:35;;;;;;;6.47;2.90;;;29.20;95.40;;;;;;7346513;19;108886;-80
2022/06/23 10:03:25;;;;;;;6.43;3.50;;;29.30;95.40;;;;;;7342859;19;108872;-80
2022/06/23 10:06:11;;;;;;;6.05;3.45;;;29.40;95.00;;;;;;7341751;19;108854;-80
2022/06/23 10:08:57;;;;;;;6.10;3.10;;;29.50;94.90;;;;;;7343315;19;108458;-80
2022/06/23 10:11:43;;;;;;;8.93;3.35;;;29.40;95.20;;;;;;7342137;19;108050;-79
2022/06/23 10:14:22;;;;;;;8.75;3.35;;;29.50;94.80;;;;;;7340855;19;109230;-80
2022/06/23 10:17:19;;;;;;;6.03;3.00;;;29.50;94.80;;;;;;7343747;19;108015;-80
2022/06/23 10:19:53;;;;;;;7.83;3.30;;;29.50;94.70;;;;;;7341278;19;109275;-80
2022/06/23 10:22:42;;;;;;;8.98;3.28;;;29.70;94.90;;;;;;7346478;19;109317;-80
2022/06/23 10:25:39;;;;;;;9.57;3.20;;;29.90;94.40;;;;;;7350094;19;108544;-80
2022/06/23 10:28:09;;;;;;;6.00;3.43;;;30.00;94.00;;;;;;7349595;19;109180;-80
2022/06/23 10:31:11;;;;;;;6.78;3.67;;;29.80;93.70;;;;;;7346684;19;110404;-80
2022/06/23 10:33:41;;;;;;;9.40;3.78;;;29.70;94.10;;;;;;7344299;19;108022;-80
2022/06/23 10:36:42;;;;;;;10.25;3.72;;;29.70;94.30;;;;;;7348664;19;107894;-80
2022/06/23 10:39:27;;;;;;;6.13;3.40;;;29.90;94.50;;;;;;7348914;19;107982;-80
2022/06/23 10:42:13;;;;;;;8.75;3.47;;;30.10;94.40;;;;;;7349824;19;110982;-80
2022/06/23 10:44:50;;;;;;;8.02;3.20;;;30.30;94.10;;;;;;7348716;19;109392;-80
2022/06/23 10:47:35;;;;;;;6.82;3.00;;;30.40;94.20;;;;;;7355198;19;107933;-80
2022/06/23 10:50:05;;;;;;;8.35;3.42;;;30.50;94.00;;;;;;7348646;19;109770;-80
2022/06/23 10:53:20;;;;;;;5.40;2.70;;;30.60;93.00;;;;;;7348009;19;110125;-80
2022/06/23 10:56:09;;;;;;;4.55;2.90;;;30.70;93.10;;;;;;7349371;19;108317;-81
2022/06/23 10:58:48;;;;;;;9.15;3.22;;;30.70;92.90;;;;;;7345919;19;109052;-80
2022/06/23 11:01:27;;;;;;;5.07;3.00;;;30.60;92.30;;;;;;7342022;19;110255;-80
2022/06/23 11:04:17;;;;;;;5.50;3.08;;;30.60;91.30;;;;;;7343740;19;108312;-80
2022/06/23 11:07:23;;;;;;;8.02;2.90;;;30.60;92.40;;;;;;7347198;19;109063;-80
2022/06/23 11:10:11;;;;;;;6.80;2.90;;;30.70;92.30;;;;;;7345269;19;108230;-80
2022/06/23 11:12:40;;;;;;;8.45;3.35;;;30.70;92.10;;;;;;7351178;19;108329;-80
2022/06/23 11:15:26;;;;;;;4.88;3.05;;;30.90;92.30;;;;;;7346817;19;108014;-80
2022/06/23 11:18:15;;;;;;;6.05;2.90;;;31.00;91.70;;;;;;7346212;19;108042;-80
2022/06/23 11:20:48;;;;;;;6.22;2.90;;;31.10;92.40;;;;;;7345700;19;110812;-79
2022/06/23 11:23:41;;;;;;;10.38;2.67;;;31.20;91.80;;;;;;7347796;19;107809;-81
2022/06/23 11:26:32;;;;;;;7.82;2.60;;;31.40;91.30;;;;;;7347994;19;108582;-80
2022/06/23 11:29:17;;;;;;;7.22;2.92;;;31.50;90.90;;;;;;7345694;19;109401;-80
2022/06/23 11:32:00;;;;;;;6.82;2.65;;;31.50;90.40;;;;;;7345996;19;107436;-80
2022/06/23 11:34:39;;;;;;;8.57;2.90;;;31.60;90.80;;;;;;7344963;19;108523;-80
2022/06/23 11:37:15;;;;;;;8.00;2.97;;;31.80;90.20;;;;;;7351479;19;108201;-80
2022/06/23 11:40:00;;;;;;;5.00;2.33;;;31.90;89.60;;;;;;7346671;19;108251;-80
2022/06/23 11:42:36;;;;;;;9.82;3.10;;;31.90;88.50;;;;;;7348310;19;108960;-80
2022/06/23 11:45:35;;;;;;;8.13;3.05;;;32.00;88.20;;;;;;7345993;19;107899;-80
2022/06/23 11:48:12;;;;;;;10.13;2.10;;;32.10;88.00;;;;;;7347846;19;108037;-81
2022/06/23 11:50:43;;;;;;;;;;;32.10;86.20;;;;;;7346290;19;108693;-80
2022/06/23 11:53:29;;;;;;;8.73;2.55;;;32.10;86.90;;;;;;7351126;19;108005;-80
2022/06/23 11:56:01;;;;;;;6.43;2.58;;;32.10;86.70;;;;;;7346927;19;108249;-80
2022/06/23 11:58:35;;;;;;;4.80;2.20;;;32.20;85.00;;;;;;7346486;19;109025;-80
2022/06/23 12:01:20;;;;;;;6.57;2.45;;;32.30;85.40;;;;;;7351141;19;108287;-81
2022/06/23 12:03:56;;;;;;;5.00;2.25;;;32.30;85.90;;;;;;7344600;19;108370;-80
2022/06/23 12:06:47;;;;;;;8.63;2.30;;;32.30;85.50;;;;;;7347426;19;107898;-80
2022/06/23 12:09:35;;;;;;;4.78;2.20;;;32.30;84.70;;;;;;7345199;19;109305;-81
2022/06/23 12:12:05;;;;;;;6.20;2.25;;;32.30;85.40;;;;;;7345852;19;109288;-80
2022/06/23 12:14:35;;;;;;;7.00;2.45;;;32.50;84.80;;;;;;7345930;19;108056;-80
2022/06/23 12:17:19;;;;;;;10.95;2.78;;;32.60;84.20;;;;;;7346032;19;108380;-80
2022/06/23 12:20:01;;;;;;;8.98;2.80;;;32.80;84.50;;;;;;7346108;19;108979;-80
2022/06/23 12:23:16;;;;;;;8.45;2.40;;;33.00;82.80;;;;;;7345818;19;108597;-81
2022/06/23 12:26:03;;;;;;;4.15;2.15;;;33.00;83.20;;;;;;7351841;19;107418;-80
2022/06/23 12:28:46;;;;;;;7.85;2.13;;;33.00;81.30;;;;;;7342958;19;107882;-82
2022/06/23 12:31:40;;;;;;;14.77;2.28;;;33.20;81.40;;;;;;7343577;19;108799;-81
2022/06/23 12:34:26;;;;;;;9.10;1.98;;;33.30;79.00;;;;;;7344017;19;109001;-80
2022/06/23 12:37:20;;;;;;;4.47;2.20;;;33.40;79.50;;;;;;7345274;19;111891;-80
2022/06/23 12:40:07;;;;;;;4.85;2.05;;;33.60;77.00;;;;;;7343993;19;108168;-80
2022/06/23 12:42:52;;;;;;;3.55;1.90;;;33.70;75.40;;;;;;7344505;19;112577;-81
2022/06/23 12:45:37;;;;;;;6.57;2.25;;;33.50;71.70;;;;;;7342751;19;108032;-80
2022/06/23 12:48:35;;;;;;;6.60;1.73;;;33.30;74.90;;;;;;7348886;19;108252;-80
2022/06/23 12:51:01;;;;;;;;;;;33.40;75.90;;;;;;7345366;19;108226;-80
2022/06/23 12:53:48;;;;;;;;;;;33.50;76.10;;;;;;7347861;19;107970;-79
2022/06/23 12:56:29;;;;;;;5.90;1.98;;;33.60;75.30;;;;;;7348215;19;109012;-80
2022/06/23 12:59:22;;;;;;;4.28;1.67;;;33.80;73.10;;;;;;7345231;19;107170;-80
2022/06/23 13:02:04;;;;;;;4.70;1.90;;;34.00;74.00;;;;;;7342203;19;107262;-80
2022/06/23 13:05:08;;;;;;;6.35;1.80;;;34.10;72.90;;;;;;7342722;19;109262;-80
2022/06/23 13:08:03;;;;;;;5.07;1.92;;;34.30;69.50;;;;;;7344447;19;112135;-80
2022/06/23 13:10:36;;;;;;;6.85;2.10;;;34.20;70.80;;;;;;7340683;19;108269;-80
2022/06/23 13:13:17;;;;;;;4.13;2.10;;;34.10;71.90;;;;;;7348395;19;109215;-80
2022/06/23 13:15:59;;;;;;;8.18;2.35;;;34.20;71.20;;;;;;7343430;19;110564;-80
2022/06/23 13:18:45;;;;;;;4.88;1.92;;;34.30;71.20;;;;;;7343515;19;109010;-80
2022/06/23 13:21:14;;;;;;;6.95;2.10;;;34.10;71.80;;;;;;7337308;19;108316;-80
2022/06/23 13:23:51;;;;;;;7.90;2.20;;;34.00;70.20;;;;;;7343082;19;108591;-80
2022/06/23 13:26:28;;;;;;;4.72;1.88;;;34.00;70.60;;;;;;7341920;19;108898;-80
2022/06/23 13:29:18;;;;;;;6.32;1.90;;;34.20;71.60;;;;;;7344191;19;107694;-80
2022/06/23 13:32:04;;;;;;;5.63;1.90;;;34.50;72.10;;;;;;7342157;19;112178;-80
2022/06/23 13:34:35;;;;;;;5.32;1.80;;;34.70;68.50;;;;;;7339930;19;108894;-80
2022/06/23 13:37:19;;;;;;;4.65;1.38;;;34.70;65.90;;;;;;7348368;19;107957;-80
2022/06/23 13:39:52;;;;;;;6.20;1.63;;;34.80;66.30;;;;;;7343620;19;108952;-80
2022/06/23 13:42:39;;;;;;;3.80;1.40;;;35.00;65.40;;;;;;7341232;19;108018;-80
2022/06/23 13:45:15;;;;;;;6.05;1.58;;;35.20;66.30;;;;;;7343676;19;112205;-80
2022/06/23 13:48:18;;;;;;;2.53;1.35;;;35.20;63.10;;;;;;7341982;19;108891;-80
2022/06/23 13:51:17;;;;;;;4.75;1.52;;;35.30;64.50;;;;;;7338203;19;108282;-81
2022/06/23 13:53:59;;;;;;;2.63;1.40;;;35.50;62.80;;;;;;7339195;19;108273;-79
2022/06/23 13:56:52;;;;;;;2.30;1.30;;;35.60;62.50;;;;;;7339007;19;108307;-80
2022/06/23 13:59:37;;;;;;;5.28;1.77;;;35.80;61.20;;;;;;7339184;19;111217;-80
2022/06/23 14:02:35;;;;;;;4.25;1.83;;;35.80;60.90;;;;;;7341887;19;108374;-80